sensor_id;sensor_type;location;lat;lon;timestamp;pressure;altitude;pressure_sealevel;temperature;humidity
30618;BME280;17384;51.214;9.202;2023-02-01T00:01:30;98884.88;;;2.62;73.89
30618;BME280;17384;51.214;9.202;2023-02-01T00:03:56;98887.72;;;2.60;73.84
30618;BME280;17384;51.214;9.202;2023-02-01T00:06:21;98878.16;;;2.58;74.04
30618;BME280;17384;51.214;9.202;2023-02-01T00:08:47;98887.38;;;2.63;73.59
30618;BME280;17384;51.214;9.202;2023-02-01T00:11:12;98876.44;;;2.49;74.38
30618;BME280;17384;51.214;9.202;2023-02-01T00:13:40;98879.28;;;2.47;74.58
30618;BME280;17384;51.214;9.202;2023-02-01T00:16:15;98866.78;;;2.56;74.05
30618;BME280;17384;51.214;9.202;2023-02-01T00:18:42;98863.06;;;2.49;74.23
30618;BME280;17384;51.214;9.202;2023-02-01T00:21:09;98879.84;;;2.59;74.00
30618;BME280;17384;51.214;9.202;2023-02-01T00:23:35;98872.44;;;2.53;73.71
30618;BME280;17384;51.214;9.202;2023-02-01T00:26:04;98877.31;;;2.57;73.67
30618;BME280;17384;51.214;9.202;2023-02-01T00:28:30;98866.63;;;2.57;73.81
30618;BME280;17384;51.214;9.202;2023-02-01T00:31:00;98870.09;;;2.50;74.02
30618;BME280;17384;51.214;9.202;2023-02-01T00:33:26;98873.44;;;2.52;73.90
30618;BME280;17384;51.214;9.202;2023-02-01T00:35:59;98870.41;;;2.47;73.96
30618;BME280;17384;51.214;9.202;2023-02-01T00:38:28;98864.56;;;2.43;74.36
30618;BME280;17384;51.214;9.202;2023-02-01T00:40:54;98868.78;;;2.46;74.13
30618;BME280;17384;51.214;9.202;2023-02-01T00:43:20;98858.38;;;2.43;74.14
30618;BME280;17384;51.214;9.202;2023-02-01T00:45:46;98870.59;;;2.45;74.05
30618;BME280;17384;51.214;9.202;2023-02-01T00:48:12;98863.41;;;2.46;74.17
30618;BME280;17384;51.214;9.202;2023-02-01T00:50:44;98862.38;;;2.47;73.88
30618;BME280;17384;51.214;9.202;2023-02-01T00:53:10;98850.03;;;2.46;73.76
30618;BME280;17384;51.214;9.202;2023-02-01T00:55:36;98858.91;;;2.46;73.94
30618;BME280;17384;51.214;9.202;2023-02-01T00:58:01;98851.72;;;2.55;73.40
30618;BME280;17384;51.214;9.202;2023-02-01T01:00:27;98849.88;;;2.55;73.40
30618;BME280;17384;51.214;9.202;2023-02-01T01:02:52;98850.03;;;2.54;73.26
30618;BME280;17384;51.214;9.202;2023-02-01T01:05:18;98840.84;;;2.56;73.06
30618;BME280;17384;51.214;9.202;2023-02-01T01:07:44;98858.97;;;2.70;72.56
30618;BME280;17384;51.214;9.202;2023-02-01T01:10:10;98864.28;;;2.62;72.77
30618;BME280;17384;51.214;9.202;2023-02-01T01:12:35;98871.19;;;2.73;72.17
30618;BME280;17384;51.214;9.202;2023-02-01T01:15:01;98854.41;;;2.63;72.71
30618;BME280;17384;51.214;9.202;2023-02-01T01:17:26;98851.72;;;2.63;72.47
30618;BME280;17384;51.214;9.202;2023-02-01T01:19:52;98865.44;;;2.60;72.67
30618;BME280;17384;51.214;9.202;2023-02-01T01:22:17;98851.75;;;2.71;72.52
30618;BME280;17384;51.214;9.202;2023-02-01T01:24:43;98860.63;;;2.80;71.75
30618;BME280;17384;51.214;9.202;2023-02-01T01:27:08;98854.09;;;2.74;71.98
30618;BME280;17384;51.214;9.202;2023-02-01T01:29:34;98857.31;;;3.02;71.08
30618;BME280;17384;51.214;9.202;2023-02-01T01:31:59;98860.50;;;3.05;70.79
30618;BME280;17384;51.214;9.202;2023-02-01T01:34:24;98859.00;;;2.95;70.98
30618;BME280;17384;51.214;9.202;2023-02-01T01:36:50;98861.66;;;3.03;71.59
30618;BME280;17384;51.214;9.202;2023-02-01T01:39:15;98844.75;;;2.94;71.90
30618;BME280;17384;51.214;9.202;2023-02-01T01:41:41;98840.03;;;2.80;71.96
30618;BME280;17384;51.214;9.202;2023-02-01T01:47:10;98825.88;;;2.29;73.45
30618;BME280;17384;51.214;9.202;2023-02-01T01:49:36;98816.47;;;2.17;74.14
30618;BME280;17384;51.214;9.202;2023-02-01T01:52:03;98817.56;;;1.98;75.04
30618;BME280;17384;51.214;9.202;2023-02-01T01:54:34;98815.88;;;1.97;75.15
30618;BME280;17384;51.214;9.202;2023-02-01T01:57:12;98821.88;;;1.91;75.76
30618;BME280;17384;51.214;9.202;2023-02-01T01:59:41;98811.81;;;1.85;76.10
30618;BME280;17384;51.214;9.202;2023-02-01T02:02:09;98817.34;;;1.84;76.21
30618;BME280;17384;51.214;9.202;2023-02-01T02:04:35;98820.69;;;1.86;76.24
30618;BME280;17384;51.214;9.202;2023-02-01T02:07:08;98801.44;;;1.82;76.19
30618;BME280;17384;51.214;9.202;2023-02-01T02:09:35;98805.06;;;2.07;76.29
30618;BME280;17384;51.214;9.202;2023-02-01T02:12:01;98808.06;;;2.04;76.10
30618;BME280;17384;51.214;9.202;2023-02-01T02:14:26;98799.03;;;2.05;76.48
30618;BME280;17384;51.214;9.202;2023-02-01T02:17:00;98810.09;;;2.10;76.33
30618;BME280;17384;51.214;9.202;2023-02-01T02:36:02;98790.72;;;2.24;79.05
30618;BME280;17384;51.214;9.202;2023-02-01T02:38:33;98787.72;;;2.27;79.12
30618;BME280;17384;51.214;9.202;2023-02-01T02:41:22;98781.69;;;2.25;79.15
30618;BME280;17384;51.214;9.202;2023-02-01T02:44:33;98777.69;;;2.29;78.88
30618;BME280;17384;51.214;9.202;2023-02-01T02:47:24;98781.25;;;2.46;77.86
30618;BME280;17384;51.214;9.202;2023-02-01T02:55:56;98789.81;;;2.66;75.20
30618;BME280;17384;51.214;9.202;2023-02-01T02:58:42;98778.09;;;2.67;74.66
30618;BME280;17384;51.214;9.202;2023-02-01T03:01:28;98778.25;;;2.65;74.37
30618;BME280;17384;51.214;9.202;2023-02-01T03:04:13;98777.44;;;2.73;73.92
30618;BME280;17384;51.214;9.202;2023-02-01T03:06:43;98767.53;;;2.65;74.40
30618;BME280;17384;51.214;9.202;2023-02-01T03:09:14;98775.94;;;2.70;74.21
30618;BME280;17384;51.214;9.202;2023-02-01T03:11:41;98769.03;;;2.76;73.58
30618;BME280;17384;51.214;9.202;2023-02-01T03:14:28;98775.44;;;2.91;72.10
30618;BME280;17384;51.214;9.202;2023-02-01T03:17:00;98763.00;;;3.06;71.48
30618;BME280;17384;51.214;9.202;2023-02-01T03:19:35;98762.34;;;3.13;70.95
30618;BME280;17384;51.214;9.202;2023-02-01T03:22:05;98750.28;;;3.17;70.86
30618;BME280;17384;51.214;9.202;2023-02-01T03:24:40;98750.94;;;3.11;70.79
30618;BME280;17384;51.214;9.202;2023-02-01T03:27:33;98750.94;;;3.19;70.43
30618;BME280;17384;51.214;9.202;2023-02-01T03:30:14;98738.88;;;3.23;70.10
30618;BME280;17384;51.214;9.202;2023-02-01T03:32:44;98761.16;;;3.23;70.31
30618;BME280;17384;51.214;9.202;2023-02-01T03:40:50;98746.25;;;3.04;71.21
30618;BME280;17384;51.214;9.202;2023-02-01T03:43:19;98742.25;;;3.09;70.90
30618;BME280;17384;51.214;9.202;2023-02-01T03:45:49;98728.84;;;3.17;70.60
30618;BME280;17384;51.214;9.202;2023-02-01T03:48:23;98718.78;;;3.27;70.28
30618;BME280;17384;51.214;9.202;2023-02-01T03:50:56;98729.78;;;3.32;70.25
30618;BME280;17384;51.214;9.202;2023-02-01T03:53:23;98723.75;;;3.30;70.13
30618;BME280;17384;51.214;9.202;2023-02-01T03:55:51;98720.06;;;3.31;70.48
30618;BME280;17384;51.214;9.202;2023-02-01T03:58:19;98723.75;;;3.38;69.57
30618;BME280;17384;51.214;9.202;2023-02-01T04:00:58;98722.28;;;3.27;70.74
30618;BME280;17384;51.214;9.202;2023-02-01T04:03:25;98718.91;;;3.33;70.55
30618;BME280;17384;51.214;9.202;2023-02-01T04:05:51;98710.69;;;3.35;69.93
30618;BME280;17384;51.214;9.202;2023-02-01T04:08:24;98712.56;;;3.26;70.79
30618;BME280;17384;51.214;9.202;2023-02-01T04:10:50;98710.34;;;3.30;70.79
30618;BME280;17384;51.214;9.202;2023-02-01T04:13:15;98709.53;;;3.29;70.82
30618;BME280;17384;51.214;9.202;2023-02-01T04:15:41;98709.34;;;3.31;70.57
30618;BME280;17384;51.214;9.202;2023-02-01T04:18:06;98708.84;;;3.35;70.41
30618;BME280;17384;51.214;9.202;2023-02-01T04:20:32;98699.63;;;3.38;70.19
30618;BME280;17384;51.214;9.202;2023-02-01T04:22:58;98696.09;;;3.37;70.45
30618;BME280;17384;51.214;9.202;2023-02-01T04:25:23;98710.84;;;3.33;70.44
30618;BME280;17384;51.214;9.202;2023-02-01T04:27:49;98701.78;;;3.43;70.04
30618;BME280;17384;51.214;9.202;2023-02-01T04:30:15;98697.09;;;3.45;69.85
30618;BME280;17384;51.214;9.202;2023-02-01T04:32:55;98691.34;;;3.56;69.37
30618;BME280;17384;51.214;9.202;2023-02-01T04:35:38;98687.88;;;3.47;69.68
30618;BME280;17384;51.214;9.202;2023-02-01T04:38:05;98692.41;;;3.47;69.60
30618;BME280;17384;51.214;9.202;2023-02-01T04:40:34;98688.38;;;3.51;69.42
30618;BME280;17384;51.214;9.202;2023-02-01T04:43:31;98679.81;;;3.47;69.59
30618;BME280;17384;51.214;9.202;2023-02-01T04:46:08;98687.53;;;3.50;69.29
30618;BME280;17384;51.214;9.202;2023-02-01T04:48:36;98676.13;;;3.48;69.25
30618;BME280;17384;51.214;9.202;2023-02-01T04:51:02;98688.38;;;3.43;69.54
30618;BME280;17384;51.214;9.202;2023-02-01T04:53:27;98688.22;;;3.36;70.17
30618;BME280;17384;51.214;9.202;2023-02-01T04:59:16;98677.31;;;3.46;69.33
30618;BME280;17384;51.214;9.202;2023-02-01T05:01:41;98673.63;;;3.47;69.33
30618;BME280;17384;51.214;9.202;2023-02-01T05:04:07;98690.22;;;3.50;69.37
30618;BME280;17384;51.214;9.202;2023-02-01T05:06:33;98686.88;;;3.48;69.60
30618;BME280;17384;51.214;9.202;2023-02-01T05:08:58;98689.53;;;3.48;69.54
30618;BME280;17384;51.214;9.202;2023-02-01T05:11:24;98674.06;;;3.58;69.05
30618;BME280;17384;51.214;9.202;2023-02-01T05:14:08;98680.09;;;3.60;68.95
30618;BME280;17384;51.214;9.202;2023-02-01T05:16:34;98667.41;;;3.54;69.42
30618;BME280;17384;51.214;9.202;2023-02-01T05:18:59;98660.03;;;3.48;69.73
30618;BME280;17384;51.214;9.202;2023-02-01T05:21:25;98663.56;;;3.49;69.88
30618;BME280;17384;51.214;9.202;2023-02-01T05:23:51;98657.63;;;3.61;69.05
30618;BME280;17384;51.214;9.202;2023-02-01T05:26:38;98651.66;;;3.51;69.58
30618;BME280;17384;51.214;9.202;2023-02-01T05:29:25;98645.47;;;3.43;70.05
30618;BME280;17384;51.214;9.202;2023-02-01T05:32:06;98644.47;;;3.44;69.72
30618;BME280;17384;51.214;9.202;2023-02-01T05:35:01;98645.00;;;3.39;70.10
30618;BME280;17384;51.214;9.202;2023-02-01T05:37:30;98642.66;;;3.36;69.85
30618;BME280;17384;51.214;9.202;2023-02-01T05:40:06;98635.75;;;3.42;69.75
30618;BME280;17384;51.214;9.202;2023-02-01T05:45:36;98647.66;;;3.39;70.08
30618;BME280;17384;51.214;9.202;2023-02-01T05:48:02;98644.47;;;3.44;69.85
30618;BME280;17384;51.214;9.202;2023-02-01T05:50:27;98646.97;;;3.45;69.89
30618;BME280;17384;51.214;9.202;2023-02-01T05:52:56;98657.19;;;3.50;69.77
30618;BME280;17384;51.214;9.202;2023-02-01T05:55:24;98655.00;;;3.53;69.65
30618;BME280;17384;51.214;9.202;2023-02-01T05:57:49;98663.38;;;3.50;69.81
30618;BME280;17384;51.214;9.202;2023-02-01T06:00:15;98654.34;;;3.51;70.33
30618;BME280;17384;51.214;9.202;2023-02-01T06:02:43;98640.94;;;3.51;70.20
30618;BME280;17384;51.214;9.202;2023-02-01T06:05:09;98647.97;;;3.52;70.07
30618;BME280;17384;51.214;9.202;2023-02-01T06:07:35;98646.56;;;3.56;69.90
30618;BME280;17384;51.214;9.202;2023-02-01T06:10:04;98646.63;;;3.48;70.13
30618;BME280;17384;51.214;9.202;2023-02-01T06:12:32;98647.97;;;3.52;69.92
30618;BME280;17384;51.214;9.202;2023-02-01T06:15:08;98652.00;;;3.48;70.77
30618;BME280;17384;51.214;9.202;2023-02-01T06:17:33;98668.44;;;3.45;71.02
30618;BME280;17384;51.214;9.202;2023-02-01T06:19:59;98662.56;;;3.50;70.78
30618;BME280;17384;51.214;9.202;2023-02-01T06:22:25;98655.84;;;3.54;71.05
30618;BME280;17384;51.214;9.202;2023-02-01T06:25:07;98671.09;;;3.53;71.04
30618;BME280;17384;51.214;9.202;2023-02-01T06:27:36;98676.13;;;3.48;71.80
30618;BME280;17384;51.214;9.202;2023-02-01T06:30:13;98669.28;;;3.46;72.28
30618;BME280;17384;51.214;9.202;2023-02-01T06:32:40;98659.72;;;3.43;72.41
30618;BME280;17384;51.214;9.202;2023-02-01T06:35:07;98674.13;;;3.42;72.94
30618;BME280;17384;51.214;9.202;2023-02-01T06:37:33;98663.75;;;3.39;73.76
30618;BME280;17384;51.214;9.202;2023-02-01T06:39:59;98656.06;;;3.36;74.13
30618;BME280;17384;51.214;9.202;2023-02-01T06:42:25;98666.13;;;3.34;74.78
30618;BME280;17384;51.214;9.202;2023-02-01T06:44:50;98658.25;;;3.32;74.95
30618;BME280;17384;51.214;9.202;2023-02-01T06:47:16;98657.91;;;3.35;74.46
30618;BME280;17384;51.214;9.202;2023-02-01T06:50:00;98650.91;;;3.26;75.01
30618;BME280;17384;51.214;9.202;2023-02-01T06:52:25;98654.44;;;3.27;75.04
30618;BME280;17384;51.214;9.202;2023-02-01T06:54:51;98647.69;;;3.31;74.85
30618;BME280;17384;51.214;9.202;2023-02-01T06:57:17;98643.66;;;3.35;74.40
30618;BME280;17384;51.214;9.202;2023-02-01T06:59:43;98652.38;;;3.37;74.60
30618;BME280;17384;51.214;9.202;2023-02-01T07:02:11;98663.09;;;3.37;74.74
30618;BME280;17384;51.214;9.202;2023-02-01T07:04:37;98652.72;;;3.34;74.83
30618;BME280;17384;51.214;9.202;2023-02-01T07:07:05;98663.72;;;3.47;74.02
30618;BME280;17384;51.214;9.202;2023-02-01T07:09:31;98653.53;;;3.43;74.59
30618;BME280;17384;51.214;9.202;2023-02-01T07:11:57;98670.44;;;3.43;74.59
30618;BME280;17384;51.214;9.202;2023-02-01T07:14:23;98678.00;;;3.39;74.63
30618;BME280;17384;51.214;9.202;2023-02-01T07:16:48;98677.16;;;3.47;74.07
30618;BME280;17384;51.214;9.202;2023-02-01T07:19:14;98671.59;;;3.49;74.57
30618;BME280;17384;51.214;9.202;2023-02-01T07:21:39;98674.13;;;3.42;75.00
30618;BME280;17384;51.214;9.202;2023-02-01T07:24:05;98689.88;;;3.45;75.44
30618;BME280;17384;51.214;9.202;2023-02-01T07:26:30;98677.63;;;3.51;75.15
30618;BME280;17384;51.214;9.202;2023-02-01T07:28:56;98682.34;;;3.40;75.93
30618;BME280;17384;51.214;9.202;2023-02-01T07:31:22;98693.28;;;3.31;76.18
30618;BME280;17384;51.214;9.202;2023-02-01T07:33:48;98694.44;;;3.28;76.79
30618;BME280;17384;51.214;9.202;2023-02-01T07:36:17;98697.94;;;3.37;76.10
30618;BME280;17384;51.214;9.202;2023-02-01T07:38:43;98708.69;;;3.37;76.15
30618;BME280;17384;51.214;9.202;2023-02-01T07:41:08;98682.69;;;3.37;75.91
30618;BME280;17384;51.214;9.202;2023-02-01T07:43:35;98693.91;;;3.41;75.46
30618;BME280;17384;51.214;9.202;2023-02-01T07:46:02;98690.03;;;3.52;74.55
30618;BME280;17384;51.214;9.202;2023-02-01T07:48:28;98698.56;;;3.55;73.97
30618;BME280;17384;51.214;9.202;2023-02-01T07:51:05;98714.47;;;3.57;74.42
30618;BME280;17384;51.214;9.202;2023-02-01T07:53:33;98719.81;;;3.57;74.18
30618;BME280;17384;51.214;9.202;2023-02-01T07:55:59;98707.56;;;3.62;72.62
30618;BME280;17384;51.214;9.202;2023-02-01T07:58:25;98703.53;;;3.66;73.07
30618;BME280;17384;51.214;9.202;2023-02-01T08:00:51;98699.50;;;3.70;72.68
30618;BME280;17384;51.214;9.202;2023-02-01T08:03:36;98694.78;;;3.81;70.82
30618;BME280;17384;51.214;9.202;2023-02-01T08:06:01;98709.66;;;3.83;71.34
30618;BME280;17384;51.214;9.202;2023-02-01T08:08:27;98716.34;;;3.87;70.06
30618;BME280;17384;51.214;9.202;2023-02-01T08:11:04;98729.59;;;3.89;71.16
30618;BME280;17384;51.214;9.202;2023-02-01T08:13:30;98721.38;;;3.90;70.32
30618;BME280;17384;51.214;9.202;2023-02-01T08:16:00;98725.56;;;3.93;69.87
30618;BME280;17384;51.214;9.202;2023-02-01T08:18:25;98721.53;;;3.97;69.29
30618;BME280;17384;51.214;9.202;2023-02-01T08:20:51;98732.56;;;4.02;69.61
30618;BME280;17384;51.214;9.202;2023-02-01T08:23:16;98714.94;;;4.07;68.86
30618;BME280;17384;51.214;9.202;2023-02-01T08:25:43;98726.00;;;4.04;68.31
30618;BME280;17384;51.214;9.202;2023-02-01T08:28:09;98745.66;;;4.05;68.42
30618;BME280;17384;51.214;9.202;2023-02-01T08:30:39;98729.53;;;4.05;69.27
30618;BME280;17384;51.214;9.202;2023-02-01T08:33:05;98744.63;;;4.06;68.67
30618;BME280;17384;51.214;9.202;2023-02-01T08:35:34;98743.31;;;4.02;69.08
30618;BME280;17384;51.214;9.202;2023-02-01T08:38:00;98735.25;;;4.02;69.08
30618;BME280;17384;51.214;9.202;2023-02-01T08:40:25;98733.22;;;4.04;69.87
30618;BME280;17384;51.214;9.202;2023-02-01T08:42:50;98742.44;;;4.10;69.77
30618;BME280;17384;51.214;9.202;2023-02-01T08:45:18;98736.56;;;4.06;69.60
30618;BME280;17384;51.214;9.202;2023-02-01T08:47:46;98741.09;;;4.05;69.54
30618;BME280;17384;51.214;9.202;2023-02-01T08:50:12;98756.13;;;4.15;69.21
30618;BME280;17384;51.214;9.202;2023-02-01T08:52:38;98761.03;;;4.11;69.85
30618;BME280;17384;51.214;9.202;2023-02-01T08:55:05;98739.81;;;4.24;69.32
30618;BME280;17384;51.214;9.202;2023-02-01T08:57:32;98755.66;;;4.11;71.19
30618;BME280;17384;51.214;9.202;2023-02-01T08:59:57;98767.47;;;4.02;71.55
30618;BME280;17384;51.214;9.202;2023-02-01T09:02:23;98765.28;;;3.97;71.77
30618;BME280;17384;51.214;9.202;2023-02-01T09:04:48;98754.41;;;3.91;72.34
30618;BME280;17384;51.214;9.202;2023-02-01T09:07:13;98755.59;;;3.88;72.69
30618;BME280;17384;51.214;9.202;2023-02-01T09:09:39;98747.72;;;3.87;73.50
30618;BME280;17384;51.214;9.202;2023-02-01T09:12:05;98753.91;;;3.95;73.82
30618;BME280;17384;51.214;9.202;2023-02-01T09:14:30;98756.94;;;3.92;72.89
30618;BME280;17384;51.214;9.202;2023-02-01T09:16:56;98762.47;;;3.91;74.12
30618;BME280;17384;51.214;9.202;2023-02-01T09:19:22;98757.75;;;3.93;73.69
30618;BME280;17384;51.214;9.202;2023-02-01T09:21:47;98779.56;;;3.90;74.17
30618;BME280;17384;51.214;9.202;2023-02-01T09:24:13;98785.63;;;3.84;74.10
30618;BME280;17384;51.214;9.202;2023-02-01T09:26:38;98779.75;;;3.88;73.27
30618;BME280;17384;51.214;9.202;2023-02-01T09:29:05;98753.38;;;4.00;73.54
30618;BME280;17384;51.214;9.202;2023-02-01T09:31:40;98740.09;;;4.06;73.25
30618;BME280;17384;51.214;9.202;2023-02-01T09:34:06;98755.31;;;4.14;72.60
30618;BME280;17384;51.214;9.202;2023-02-01T09:36:32;98758.75;;;4.31;72.23
30618;BME280;17384;51.214;9.202;2023-02-01T09:38:59;98755.59;;;4.27;72.36
30618;BME280;17384;51.214;9.202;2023-02-01T09:44:21;98767.56;;;4.39;72.24
30618;BME280;17384;51.214;9.202;2023-02-01T09:46:55;98752.78;;;4.43;72.03
30618;BME280;17384;51.214;9.202;2023-02-01T09:49:36;98761.47;;;4.54;72.27
30618;BME280;17384;51.214;9.202;2023-02-01T09:52:08;98762.25;;;4.62;71.04
30618;BME280;17384;51.214;9.202;2023-02-01T09:54:46;98762.47;;;4.53;71.63
30618;BME280;17384;51.214;9.202;2023-02-01T09:57:24;98753.72;;;4.59;71.40
30618;BME280;17384;51.214;9.202;2023-02-01T09:59:59;98762.59;;;4.59;70.41
30618;BME280;17384;51.214;9.202;2023-02-01T10:02:26;98751.72;;;4.53;70.90
30618;BME280;17384;51.214;9.202;2023-02-01T10:04:55;98751.38;;;4.56;70.67
30618;BME280;17384;51.214;9.202;2023-02-01T10:15:19;98767.84;;;4.53;70.20
30618;BME280;17384;51.214;9.202;2023-02-01T10:18:04;98759.13;;;4.51;70.51
30618;BME280;17384;51.214;9.202;2023-02-01T10:20:50;98746.00;;;4.56;70.08
30618;BME280;17384;51.214;9.202;2023-02-01T10:26:21;98744.69;;;4.52;70.57
30618;BME280;17384;51.214;9.202;2023-02-01T10:28:58;98747.53;;;4.50;70.06
30618;BME280;17384;51.214;9.202;2023-02-01T10:31:29;98749.03;;;4.53;70.06
30618;BME280;17384;51.214;9.202;2023-02-01T10:33:58;98756.94;;;4.54;70.50
30618;BME280;17384;51.214;9.202;2023-02-01T10:36:40;98741.47;;;4.56;70.94
30618;BME280;17384;51.214;9.202;2023-02-01T10:39:09;98738.91;;;4.63;70.91
30618;BME280;17384;51.214;9.202;2023-02-01T10:41:38;98741.22;;;4.66;69.79
30618;BME280;17384;51.214;9.202;2023-02-01T10:44:13;98749.94;;;4.68;70.83
30618;BME280;17384;51.214;9.202;2023-02-01T10:46:39;98742.03;;;4.66;70.20
30618;BME280;17384;51.214;9.202;2023-02-01T10:49:08;98737.16;;;4.70;69.67
30618;BME280;17384;51.214;9.202;2023-02-01T10:54:33;98727.97;;;4.64;69.02
30618;BME280;17384;51.214;9.202;2023-02-01T10:56:58;98739.19;;;4.68;68.65
30618;BME280;17384;51.214;9.202;2023-02-01T10:59:25;98716.00;;;4.67;68.98
30618;BME280;17384;51.214;9.202;2023-02-01T11:01:59;98726.41;;;4.70;69.42
30618;BME280;17384;51.214;9.202;2023-02-01T11:04:26;98712.50;;;4.66;69.42
30618;BME280;17384;51.214;9.202;2023-02-01T11:07:07;98729.44;;;4.67;68.95
30618;BME280;17384;51.214;9.202;2023-02-01T11:09:38;98726.22;;;4.71;68.66
30618;BME280;17384;51.214;9.202;2023-02-01T11:12:04;98726.22;;;4.71;69.08
30618;BME280;17384;51.214;9.202;2023-02-01T11:14:40;98697.03;;;4.91;68.04
30618;BME280;17384;51.214;9.202;2023-02-01T11:20:00;98710.06;;;4.94;67.55
30618;BME280;17384;51.214;9.202;2023-02-01T11:22:26;98717.56;;;4.84;68.34
30618;BME280;17384;51.214;9.202;2023-02-01T11:24:54;98710.25;;;4.93;68.71
30618;BME280;17384;51.214;9.202;2023-02-01T11:27:21;98706.09;;;4.90;69.02
30618;BME280;17384;51.214;9.202;2023-02-01T11:29:50;98695.16;;;4.92;68.80
30618;BME280;17384;51.214;9.202;2023-02-01T11:32:17;98703.53;;;5.12;67.88
30618;BME280;17384;51.214;9.202;2023-02-01T11:34:47;98703.41;;;4.90;68.04
30618;BME280;17384;51.214;9.202;2023-02-01T11:37:31;98698.22;;;4.89;67.99
30618;BME280;17384;51.214;9.202;2023-02-01T11:40:03;98707.00;;;4.97;67.92
30618;BME280;17384;51.214;9.202;2023-02-01T11:43:01;98716.88;;;5.05;67.48
30618;BME280;17384;51.214;9.202;2023-02-01T11:45:33;98704.19;;;5.14;67.79
30618;BME280;17384;51.214;9.202;2023-02-01T11:48:00;98707.34;;;5.17;66.97
30618;BME280;17384;51.214;9.202;2023-02-01T11:50:37;98707.81;;;5.35;66.68
30618;BME280;17384;51.214;9.202;2023-02-01T12:06:53;98669.13;;;5.66;66.41
30618;BME280;17384;51.214;9.202;2023-02-01T12:20:58;98660.22;;;5.06;67.95
30618;BME280;17384;51.214;9.202;2023-02-01T12:23:37;98673.56;;;5.00;67.71
30618;BME280;17384;51.214;9.202;2023-02-01T12:26:54;98670.16;;;5.06;67.85
30618;BME280;17384;51.214;9.202;2023-02-01T12:32:11;98648.53;;;4.99;68.40
30618;BME280;17384;51.214;9.202;2023-02-01T12:37:52;98632.69;;;5.34;67.37
30618;BME280;17384;51.214;9.202;2023-02-01T12:40:34;98633.22;;;5.59;67.01
30618;BME280;17384;51.214;9.202;2023-02-01T12:46:05;98579.00;;;5.26;67.47
30618;BME280;17384;51.214;9.202;2023-02-01T12:48:36;98603.75;;;5.06;68.37
30618;BME280;17384;51.214;9.202;2023-02-01T12:51:13;98595.13;;;4.96;67.89
30618;BME280;17384;51.214;9.202;2023-02-01T12:53:51;98577.72;;;4.92;67.47
30618;BME280;17384;51.214;9.202;2023-02-01T12:56:30;98591.34;;;4.91;68.64
30618;BME280;17384;51.214;9.202;2023-02-01T12:59:00;98572.91;;;4.88;67.02
30618;BME280;17384;51.214;9.202;2023-02-01T13:01:39;98580.69;;;4.83;68.50
30618;BME280;17384;51.214;9.202;2023-02-01T13:04:20;98586.59;;;4.78;68.91
30618;BME280;17384;51.214;9.202;2023-02-01T13:09:43;98574.38;;;4.90;69.80
30618;BME280;17384;51.214;9.202;2023-02-01T13:12:17;98574.09;;;4.85;67.35
30618;BME280;17384;51.214;9.202;2023-02-01T13:14:54;98571.78;;;4.82;68.35
30618;BME280;17384;51.214;9.202;2023-02-01T13:17:26;98559.72;;;4.78;68.88
30618;BME280;17384;51.214;9.202;2023-02-01T13:19:54;98568.91;;;4.84;68.81
30618;BME280;17384;51.214;9.202;2023-02-01T13:22:31;98580.66;;;4.97;68.64
30618;BME280;17384;51.214;9.202;2023-02-01T13:25:11;98582.06;;;4.93;69.11
30618;BME280;17384;51.214;9.202;2023-02-01T13:27:38;98570.13;;;4.81;68.48
30618;BME280;17384;51.214;9.202;2023-02-01T13:30:30;98569.28;;;4.81;69.60
30618;BME280;17384;51.214;9.202;2023-02-01T13:43:50;98575.53;;;4.43;72.25
30618;BME280;17384;51.214;9.202;2023-02-01T13:46:17;98547.66;;;4.45;71.69
30618;BME280;17384;51.214;9.202;2023-02-01T13:48:50;98553.97;;;4.52;71.71
30618;BME280;17384;51.214;9.202;2023-02-01T13:51:44;98546.16;;;4.42;72.36
30618;BME280;17384;51.214;9.202;2023-02-01T13:56:54;98561.78;;;4.38;71.80
30618;BME280;17384;51.214;9.202;2023-02-01T14:05:09;98559.94;;;4.24;73.99
30618;BME280;17384;51.214;9.202;2023-02-01T14:07:35;98551.41;;;4.21;74.18
30618;BME280;17384;51.214;9.202;2023-02-01T14:13:12;98548.78;;;4.13;75.00
30618;BME280;17384;51.214;9.202;2023-02-01T14:15:37;98553.41;;;4.04;76.05
30618;BME280;17384;51.214;9.202;2023-02-01T14:26:21;98545.44;;;4.11;76.03
30618;BME280;17384;51.214;9.202;2023-02-01T14:37:29;98552.25;;;3.98;77.73
30618;BME280;17384;51.214;9.202;2023-02-01T14:50:43;98568.94;;;3.86;79.10
30618;BME280;17384;51.214;9.202;2023-02-01T14:53:16;98570.78;;;3.85;79.77
30618;BME280;17384;51.214;9.202;2023-02-01T14:58:47;98580.06;;;3.83;79.81
30618;BME280;17384;51.214;9.202;2023-02-01T15:01:25;98579.22;;;3.82;80.04
30618;BME280;17384;51.214;9.202;2023-02-01T15:04:15;98571.88;;;3.76;80.43
30618;BME280;17384;51.214;9.202;2023-02-01T15:07:05;98573.28;;;3.87;79.07
30618;BME280;17384;51.214;9.202;2023-02-01T15:09:37;98582.66;;;3.91;79.40
30618;BME280;17384;51.214;9.202;2023-02-01T15:14:34;98577.00;;;3.86;79.88
30618;BME280;17384;51.214;9.202;2023-02-01T15:17:01;98582.34;;;3.86;79.71
30618;BME280;17384;51.214;9.202;2023-02-01T15:19:28;98558.59;;;3.83;79.77
30618;BME280;17384;51.214;9.202;2023-02-01T15:21:57;98555.13;;;3.74;80.14
30618;BME280;17384;51.214;9.202;2023-02-01T15:24:25;98572.94;;;3.67;80.57
30618;BME280;17384;51.214;9.202;2023-02-01T15:26:52;98560.00;;;3.70;80.19
30618;BME280;17384;51.214;9.202;2023-02-01T15:29:20;98565.06;;;3.65;80.38
30618;BME280;17384;51.214;9.202;2023-02-01T15:31:50;98549.66;;;3.59;81.06
30618;BME280;17384;51.214;9.202;2023-02-01T15:34:17;98570.47;;;3.57;80.76
30618;BME280;17384;51.214;9.202;2023-02-01T15:36:45;98566.06;;;3.64;80.57
30618;BME280;17384;51.214;9.202;2023-02-01T15:39:24;98571.19;;;3.51;80.99
30618;BME280;17384;51.214;9.202;2023-02-01T15:41:56;98558.69;;;3.66;80.24
30618;BME280;17384;51.214;9.202;2023-02-01T15:44:33;98578.16;;;3.60;80.68
30618;BME280;17384;51.214;9.202;2023-02-01T15:47:04;98585.19;;;3.61;81.18
30618;BME280;17384;51.214;9.202;2023-02-01T15:49:32;98582.59;;;3.53;81.47
30618;BME280;17384;51.214;9.202;2023-02-01T15:52:02;98557.66;;;3.45;81.28
30618;BME280;17384;51.214;9.202;2023-02-01T15:54:32;98563.16;;;3.51;81.17
30618;BME280;17384;51.214;9.202;2023-02-01T15:57:02;98566.19;;;3.48;81.27